Time;durP1;ratioP1;P1;durP2;ratioP2;P2;SDS_P1;SDS_P2;PMS_P1;PMS_P2;Temp;Humidity;BMP_temperature;BMP_pressure;BME280_temperature;BME280_humidity;BME280_pressure;Samples;Min_cycle;Max_cycle;Signal;HPM_P1;HPM_P2
2022/01/20 00:03:17;;;;;;;12.80;1.88;;;5.50;99.90;;;;;;5114563;27;20737;-72
2022/01/20 00:27:31;;;;;;;12.95;2.33;;;5.10;99.90;;;;;;5129756;27;20050;-71
2022/01/20 00:32:56;;;;;;;8.48;2.03;;;5.30;99.90;;;;;;5130292;27;20672;-72
2022/01/20 00:37:14;;;;;;;9.88;2.17;;;5.60;99.90;;;;;;5128189;27;20043;-74
2022/01/20 00:38:07;;;;;;;10.20;1.80;;;5.60;99.90;;;;;;5127457;27;20503;-73
2022/01/20 00:40:33;;;;;;;6.00;1.27;;;5.20;99.90;;;;;;5124824;27;20039;-72
2022/01/20 00:42:59;;;;;;;6.38;2.03;;;5.30;99.90;;;;;;5112633;27;20040;-73
2022/01/20 00:45:24;;;;;;;8.65;1.15;;;5.70;99.90;;;;;;5130657;27;20597;-73
2022/01/20 00:47:50;;;;;;;14.50;2.00;;;6.00;99.90;;;;;;5094645;27;20375;-72
2022/01/20 00:50:16;;;;;;;10.88;2.30;;;5.60;99.90;;;;;;5129458;27;20054;-74
2022/01/20 00:52:41;;;;;;;14.82;2.17;;;5.40;99.90;;;;;;5109576;28;20035;-73
2022/01/20 00:55:08;;;;;;;8.82;1.65;;;5.90;99.90;;;;;;5129931;27;20472;-72
2022/01/20 00:57:33;;;;;;;6.20;1.55;;;5.60;99.90;;;;;;5129142;27;20387;-74
2022/01/20 00:59:59;;;;;;;10.88;1.77;;;5.50;99.90;;;;;;5127367;27;20038;-72
2022/01/20 01:02:25;;;;;;;10.60;1.88;;;6.10;99.90;;;;;;5128915;27;20118;-73
2022/01/20 01:04:51;;;;;;;13.10;2.92;;;5.60;99.90;;;;;;5113467;27;20035;-73
2022/01/20 01:09:44;;;;;;;4.97;1.13;;;5.40;99.90;;;;;;5111727;27;20054;-78
2022/01/20 01:12:15;;;;;;;5.10;1.02;;;5.70;99.90;;;;;;5112776;27;20039;-77
2022/01/20 01:14:46;;;;;;;8.30;1.45;;;4.90;99.90;;;;;;5113460;27;20489;-75
2022/01/20 01:22:23;;;;;;;4.80;1.30;;;4.80;99.90;;;;;;5114610;27;20054;-74
2022/01/20 01:24:52;;;;;;;5.25;1.27;;;4.60;99.90;;;;;;5125987;27;20091;-77
2022/01/20 01:27:19;;;;;;;3.42;0.90;;;5.80;99.90;;;;;;5111751;27;20082;-74
2022/01/20 01:32:49;;;;;;;6.22;1.08;;;5.40;99.90;;;;;;5088517;27;20423;-77
2022/01/20 01:35:17;;;;;;;6.68;0.77;;;6.00;99.90;;;;;;5123062;27;20080;-73
2022/01/20 01:40:25;;;;;;;4.47;1.00;;;5.30;99.90;;;;;;5124209;27;20050;-75
2022/01/20 01:42:52;;;;;;;8.25;1.23;;;4.70;99.90;;;;;;5126090;27;20042;-75
2022/01/20 01:45:33;;;;;;;5.22;1.40;;;4.80;99.90;;;;;;5129627;27;20035;-74
2022/01/20 01:48:00;;;;;;;7.45;2.30;;;6.00;99.90;;;;;;5126763;27;20077;-75
2022/01/20 01:50:26;;;;;;;5.95;1.20;;;5.70;99.90;;;;;;5128833;27;20494;-75
2022/01/20 01:52:55;;;;;;;5.47;1.45;;;5.30;99.90;;;;;;5126073;27;20035;-75
2022/01/20 01:55:22;;;;;;;8.32;1.92;;;5.50;99.90;;;;;;5128628;27;20050;-75
2022/01/20 01:57:48;;;;;;;5.18;1.23;;;5.60;99.90;;;;;;5126672;27;20039;-78
2022/01/20 02:00:15;;;;;;;3.45;1.08;;;5.60;99.90;;;;;;5109060;28;20122;-78
2022/01/20 02:02:43;;;;;;;6.95;1.70;;;6.40;99.90;;;;;;5119514;27;20616;-77
2022/01/20 02:05:12;;;;;;;12.45;2.00;;;5.20;99.90;;;;;;5111274;28;20031;-76
2022/01/20 02:21:10;;;;;;;7.47;1.60;;;6.40;99.90;;;;;;5129107;28;20054;-75
2022/01/20 02:23:36;;;;;;;7.13;1.20;;;6.70;99.90;;;;;;5083071;27;20042;-78
2022/01/20 02:26:01;;;;;;;8.18;1.90;;;6.00;99.90;;;;;;5128362;27;20047;-76
2022/01/20 02:28:27;;;;;;;12.68;1.80;;;5.90;99.90;;;;;;5090947;27;20099;-75
2022/01/20 02:30:54;;;;;;;7.05;1.60;;;4.90;99.90;;;;;;5110680;27;20043;-79
2022/01/20 02:33:23;;;;;;;10.50;1.67;;;5.40;99.90;;;;;;5114222;27;20175;-79
2022/01/20 02:35:53;;;;;;;19.70;2.10;;;5.00;99.90;;;;;;5105302;28;20106;-79
2022/01/20 02:38:30;;;;;;;11.23;2.85;;;4.90;99.90;;;;;;5124232;27;20033;-76
2022/01/20 02:46:25;;;;;;;18.13;2.63;;;4.90;99.90;;;;;;5120621;27;20130;-78
2022/01/20 02:48:51;;;;;;;14.88;2.63;;;4.90;99.90;;;;;;5134407;27;20383;-76
2022/01/20 02:51:16;;;;;;;19.38;2.90;;;5.40;99.90;;;;;;5118357;27;20503;-77
2022/01/20 02:53:43;;;;;;;16.27;2.90;;;5.40;99.90;;;;;;5114774;27;20027;-75
2022/01/20 02:56:08;;;;;;;13.30;3.33;;;5.80;99.90;;;;;;5135839;27;20143;-76
2022/01/20 02:58:34;;;;;;;10.95;2.65;;;5.30;99.90;;;;;;5080912;27;20070;-75
2022/01/20 03:01:00;;;;;;;14.55;2.55;;;5.00;99.90;;;;;;5098817;27;20054;-74
2022/01/20 03:03:26;;;;;;;7.20;2.55;;;4.90;99.90;;;;;;5106731;27;20039;-78
2022/01/20 03:05:52;;;;;;;5.65;1.33;;;5.10;99.90;;;;;;5119913;27;20107;-76
2022/01/20 03:08:17;;;;;;;10.85;1.77;;;4.20;99.90;;;;;;5136113;27;20074;-78
2022/01/20 03:10:43;;;;;;;8.40;1.75;;;4.60;99.90;;;;;;5102739;27;20541;-74
2022/01/20 03:13:09;;;;;;;14.52;3.60;;;4.70;99.90;;;;;;5112911;27;20095;-79
2022/01/20 03:15:35;;;;;;;18.85;2.40;;;4.10;99.90;;;;;;5113948;27;20537;-78
2022/01/20 03:18:02;;;;;;;13.48;1.77;;;3.80;99.90;;;;;;5086453;27;20054;-77
2022/01/20 03:20:28;;;;;;;16.08;2.70;;;3.80;99.90;;;;;;5097737;27;20042;-76
2022/01/20 03:22:54;;;;;;;13.82;3.03;;;3.90;99.90;;;;;;5133371;27;20108;-76
2022/01/20 03:25:20;;;;;;;15.82;2.60;;;4.30;99.90;;;;;;5132921;27;20058;-78
2022/01/20 03:27:45;;;;;;;18.75;3.10;;;4.20;99.90;;;;;;5115751;27;20061;-76
2022/01/20 03:30:11;;;;;;;16.15;3.17;;;4.00;99.90;;;;;;5110748;27;20514;-76
2022/01/20 03:32:37;;;;;;;14.85;2.25;;;4.10;99.90;;;;;;5131247;27;20035;-75
2022/01/20 03:35:06;;;;;;;15.60;3.20;;;4.20;99.90;;;;;;5114053;27;20039;-77
2022/01/20 03:37:33;;;;;;;13.65;2.58;;;4.00;99.90;;;;;;5131170;27;20123;-77
2022/01/20 03:39:59;;;;;;;10.23;1.58;;;4.10;99.90;;;;;;5122012;27;20042;-75
2022/01/20 03:42:24;;;;;;;6.72;1.60;;;4.10;99.90;;;;;;5122683;27;20042;-74
2022/01/20 03:44:52;;;;;;;9.30;1.50;;;3.90;99.90;;;;;;5134400;27;20038;-79
2022/01/20 03:47:18;;;;;;;12.15;1.90;;;3.90;99.90;;;;;;5098557;27;20121;-75
2022/01/20 03:49:55;;;;;;;11.73;2.13;;;3.70;99.90;;;;;;5133233;27;20046;-75
2022/01/20 03:52:21;;;;;;;6.85;1.33;;;4.00;99.90;;;;;;5134279;27;20055;-75
2022/01/20 03:54:46;;;;;;;9.15;1.92;;;4.00;99.90;;;;;;5115895;27;20035;-76
2022/01/20 03:57:12;;;;;;;6.22;1.77;;;3.60;99.90;;;;;;5116140;27;20035;-75
2022/01/20 03:59:38;;;;;;;8.40;1.73;;;3.60;99.90;;;;;;5096595;27;20136;-75
2022/01/20 04:02:05;;;;;;;8.20;2.35;;;3.50;99.90;;;;;;5126797;27;20111;-75
2022/01/20 04:04:31;;;;;;;6.45;1.67;;;3.50;99.90;;;;;;5134585;27;20042;-74
2022/01/20 04:06:57;;;;;;;6.75;1.70;;;3.30;99.90;;;;;;5130062;27;20039;-74
2022/01/20 04:09:23;;;;;;;12.20;2.42;;;3.50;99.90;;;;;;5113732;27;20104;-75
2022/01/20 04:11:49;;;;;;;12.80;2.58;;;3.90;99.90;;;;;;5134027;27;20053;-75
2022/01/20 04:14:15;;;;;;;13.55;3.58;;;3.40;99.90;;;;;;5134121;27;20039;-74
2022/01/20 04:19:18;;;;;;;7.97;2.58;;;3.40;99.90;;;;;;5134436;27;20042;-76
2022/01/20 04:21:44;;;;;;;11.73;1.98;;;3.50;99.90;;;;;;5116593;27;20541;-75
2022/01/20 04:24:11;;;;;;;10.55;2.22;;;3.50;99.90;;;;;;5127210;27;20061;-77
2022/01/20 04:26:38;;;;;;;6.68;1.80;;;3.50;99.90;;;;;;5110211;27;20125;-75
2022/01/20 04:29:07;;;;;;;14.65;2.92;;;3.60;99.90;;;;;;5110993;27;20050;-74
2022/01/20 04:31:34;;;;;;;7.13;1.90;;;3.60;99.90;;;;;;5127638;27;20123;-75
2022/01/20 04:34:00;;;;;;;8.60;1.80;;;3.70;99.90;;;;;;5112203;27;20041;-75
2022/01/20 04:36:29;;;;;;;11.82;1.95;;;3.70;99.90;;;;;;5127964;27;20031;-75
2022/01/20 04:38:55;;;;;;;11.05;2.45;;;3.70;99.90;;;;;;5096452;27;20100;-75
2022/01/20 04:41:22;;;;;;;11.50;2.47;;;3.80;99.90;;;;;;5112581;27;20130;-76
2022/01/20 04:43:48;;;;;;;11.98;2.53;;;3.70;99.90;;;;;;5110951;27;20047;-74
2022/01/20 04:46:24;;;;;;;10.70;2.55;;;3.80;99.90;;;;;;5130297;27;20103;-76
2022/01/20 04:59:31;;;;;;;7.50;1.65;;;3.30;99.90;;;;;;5127220;27;20112;-74
2022/01/20 05:01:57;;;;;;;10.35;1.67;;;3.20;99.90;;;;;;5128763;27;20043;-75
2022/01/20 05:04:24;;;;;;;8.27;1.85;;;3.40;99.90;;;;;;5112902;27;20034;-73
2022/01/20 05:06:53;;;;;;;10.90;2.00;;;3.10;99.90;;;;;;5127806;27;20038;-74
2022/01/20 05:09:20;;;;;;;8.85;2.00;;;3.20;99.90;;;;;;5127863;27;20054;-74
2022/01/20 05:11:51;;;;;;;6.88;2.25;;;3.20;99.90;;;;;;5111948;27;20042;-75
2022/01/20 05:14:17;;;;;;;11.75;1.83;;;3.30;99.90;;;;;;5114115;27;20050;-73
2022/01/20 05:16:43;;;;;;;9.30;1.50;;;3.30;99.90;;;;;;5111991;27;20043;-72
2022/01/20 05:19:09;;;;;;;6.80;1.83;;;3.50;99.90;;;;;;5124866;27;20451;-74
2022/01/20 05:21:34;;;;;;;8.48;1.88;;;3.10;99.90;;;;;;5112434;27;20062;-74
2022/01/20 05:24:00;;;;;;;7.90;1.52;;;3.10;99.90;;;;;;5124718;27;20053;-73
2022/01/20 05:26:26;;;;;;;2.90;1.23;;;3.20;99.90;;;;;;5109657;27;20128;-74
2022/01/20 05:28:52;;;;;;;3.17;1.23;;;3.10;99.90;;;;;;5120000;27;20060;-73
2022/01/20 05:31:17;;;;;;;7.90;1.95;;;2.70;99.90;;;;;;5108978;28;20479;-75
2022/01/20 05:33:43;;;;;;;5.75;1.70;;;2.80;99.90;;;;;;5104956;28;20039;-74
2022/01/20 05:36:09;;;;;;;7.93;2.20;;;2.70;99.90;;;;;;5085097;28;20457;-73
2022/01/20 05:38:34;;;;;;;7.10;1.92;;;2.70;99.90;;;;;;5111149;27;20070;-74
2022/01/20 05:41:00;;;;;;;9.57;2.47;;;2.70;99.90;;;;;;5117618;27;20131;-75
2022/01/20 05:43:26;;;;;;;11.95;2.03;;;2.80;99.90;;;;;;5122099;27;20477;-76
2022/01/20 05:45:52;;;;;;;11.43;2.30;;;2.70;99.90;;;;;;5111587;27;20027;-74
2022/01/20 05:48:32;;;;;;;9.55;1.95;;;2.60;99.90;;;;;;5095511;27;20675;-75
2022/01/20 05:50:58;;;;;;;6.80;1.52;;;3.00;99.90;;;;;;5095719;27;20047;-75
2022/01/20 05:53:23;;;;;;;11.20;3.08;;;2.60;99.90;;;;;;5111220;27;20039;-78
2022/01/20 05:55:49;;;;;;;9.18;1.90;;;2.70;99.90;;;;;;5077718;27;20364;-74
2022/01/20 05:58:15;;;;;;;9.13;1.90;;;2.60;99.90;;;;;;5128297;27;20080;-77
2022/01/20 06:00:42;;;;;;;7.22;1.58;;;2.90;99.90;;;;;;5111628;27;20134;-75
2022/01/20 06:05:53;;;;;;;8.77;1.48;;;2.80;99.90;;;;;;5126138;27;20117;-73
2022/01/20 06:08:19;;;;;;;9.32;2.50;;;3.10;99.90;;;;;;5128336;27;20031;-76
2022/01/20 06:10:45;;;;;;;9.07;1.80;;;3.10;99.90;;;;;;5111526;28;20046;-76
2022/01/20 06:13:11;;;;;;;10.18;2.58;;;3.10;99.90;;;;;;5125524;28;20030;-73
2022/01/20 06:15:37;;;;;;;14.95;2.95;;;3.30;99.90;;;;;;5110323;27;20129;-76
2022/01/20 06:18:03;;;;;;;9.85;2.20;;;3.20;99.90;;;;;;5118635;27;20039;-77
2022/01/20 06:20:29;;;;;;;8.50;2.00;;;3.30;99.90;;;;;;5136156;27;20063;-76
2022/01/20 06:22:55;;;;;;;5.78;1.55;;;3.40;99.90;;;;;;5135106;27;20051;-74
2022/01/20 06:25:21;;;;;;;7.88;1.70;;;3.40;99.90;;;;;;5114486;28;20047;-73
2022/01/20 06:27:48;;;;;;;12.13;2.65;;;3.40;99.90;;;;;;5131033;27;20091;-77
2022/01/20 06:30:14;;;;;;;5.50;1.98;;;3.30;99.90;;;;;;5135596;27;20470;-75
2022/01/20 06:32:40;;;;;;;7.72;1.80;;;3.80;99.90;;;;;;5136541;27;20122;-73
2022/01/20 06:35:06;;;;;;;7.95;1.55;;;3.50;99.90;;;;;;5113111;27;20118;-74
2022/01/20 06:37:32;;;;;;;7.50;1.58;;;3.30;99.90;;;;;;5115507;27;20083;-74
2022/01/20 06:39:57;;;;;;;14.80;2.10;;;3.40;99.90;;;;;;5114487;27;20394;-73
2022/01/20 06:42:23;;;;;;;11.93;2.75;;;3.60;99.90;;;;;;5116974;27;20054;-72
2022/01/20 06:44:49;;;;;;;10.43;2.50;;;3.20;99.90;;;;;;5117281;27;20087;-75
2022/01/20 06:47:14;;;;;;;13.30;2.30;;;3.20;99.90;;;;;;5118161;27;20044;-74
2022/01/20 06:49:40;;;;;;;11.52;2.97;;;3.10;99.90;;;;;;5135278;27;20129;-73
2022/01/20 06:52:06;;;;;;;10.70;2.38;;;3.50;99.90;;;;;;5136262;27;20524;-76
2022/01/20 06:54:32;;;;;;;5.90;2.25;;;3.00;99.90;;;;;;5135904;27;20047;-73
2022/01/20 06:56:59;;;;;;;6.85;1.77;;;2.90;99.90;;;;;;5117121;27;20486;-73
2022/01/20 06:59:25;;;;;;;7.60;1.60;;;3.00;99.90;;;;;;5119669;27;20043;-75
2022/01/20 07:01:51;;;;;;;12.30;2.13;;;3.30;99.90;;;;;;5133486;27;20050;-74
2022/01/20 07:04:17;;;;;;;6.13;1.40;;;3.10;99.90;;;;;;5118683;27;20100;-73
2022/01/20 07:06:43;;;;;;;10.48;1.67;;;3.30;99.90;;;;;;5117853;27;20080;-76
2022/01/20 07:09:10;;;;;;;11.55;2.03;;;3.00;99.90;;;;;;5134967;27;20046;-76
2022/01/20 07:11:38;;;;;;;12.98;2.53;;;3.00;99.90;;;;;;5119350;27;20486;-75
2022/01/20 07:14:04;;;;;;;14.48;2.15;;;3.00;99.90;;;;;;5135185;27;20103;-75
2022/01/20 07:16:30;;;;;;;11.63;2.45;;;3.20;99.90;;;;;;5114031;28;20050;-76
2022/01/20 07:18:57;;;;;;;15.13;2.00;;;3.00;99.90;;;;;;5115506;27;20050;-74
2022/01/20 07:21:23;;;;;;;16.02;2.20;;;3.20;99.90;;;;;;5118706;27;20050;-73
2022/01/20 07:23:50;;;;;;;12.05;2.30;;;3.30;99.90;;;;;;5136897;27;20082;-73
2022/01/20 07:26:17;;;;;;;14.93;3.00;;;3.10;99.90;;;;;;5138270;27;20049;-75
2022/01/20 07:28:42;;;;;;;11.90;2.20;;;3.30;99.90;;;;;;5133916;27;20466;-73
2022/01/20 07:31:08;;;;;;;13.95;2.15;;;3.20;99.90;;;;;;5134871;27;20096;-75
2022/01/20 07:33:35;;;;;;;8.68;2.22;;;3.30;99.90;;;;;;5115477;27;20046;-73
2022/01/20 07:36:01;;;;;;;5.55;1.60;;;3.20;99.90;;;;;;5136310;27;20027;-74
2022/01/20 07:38:27;;;;;;;7.65;1.45;;;3.20;99.90;;;;;;5136525;27;20059;-72
2022/01/20 07:40:53;;;;;;;9.25;1.77;;;3.30;99.90;;;;;;5115735;27;20045;-74
2022/01/20 07:43:19;;;;;;;6.25;1.40;;;3.60;99.90;;;;;;5103097;27;20455;-75
2022/01/20 07:45:45;;;;;;;12.27;2.70;;;2.90;99.90;;;;;;5134885;27;20050;-77
2022/01/20 07:48:11;;;;;;;6.38;1.50;;;3.00;99.90;;;;;;5129976;27;20544;-71
2022/01/20 07:50:37;;;;;;;4.55;1.20;;;3.20;99.90;;;;;;5114930;27;20074;-70
2022/01/20 07:53:03;;;;;;;2.38;1.05;;;3.10;99.90;;;;;;5095869;27;20054;-75
2022/01/20 07:55:29;;;;;;;6.43;1.13;;;2.60;99.90;;;;;;5135839;27;20039;-71
2022/01/20 07:57:55;;;;;;;8.80;2.08;;;2.70;99.90;;;;;;5135268;27;20406;-71
2022/01/20 08:00:21;;;;;;;4.90;1.13;;;3.00;99.90;;;;;;5135977;27;20039;-71
2022/01/20 08:02:47;;;;;;;3.97;1.55;;;3.30;99.90;;;;;;5135193;27;20042;-73
2022/01/20 08:05:14;;;;;;;9.73;1.98;;;2.60;99.90;;;;;;5117289;27;20038;-72
2022/01/20 08:07:40;;;;;;;4.65;1.73;;;2.80;99.90;;;;;;5135886;27;20091;-74
2022/01/20 08:10:07;;;;;;;7.18;1.65;;;2.80;99.90;;;;;;5118369;27;20035;-74
2022/01/20 08:12:33;;;;;;;14.00;3.03;;;2.90;99.90;;;;;;5134531;27;20130;-72
2022/01/20 08:14:59;;;;;;;12.18;1.95;;;3.00;99.90;;;;;;5134341;27;20133;-71
2022/01/20 08:17:26;;;;;;;9.70;2.10;;;3.40;99.90;;;;;;5119457;27;20367;-72
2022/01/20 08:19:52;;;;;;;12.68;2.05;;;2.90;99.90;;;;;;5135460;27;20043;-72
2022/01/20 08:22:17;;;;;;;8.77;1.98;;;3.00;99.90;;;;;;5118540;27;20057;-72
2022/01/20 08:24:49;;;;;;;13.48;1.70;;;2.90;99.90;;;;;;5117844;27;20050;-72
2022/01/20 08:27:17;;;;;;;14.95;2.38;;;3.00;99.90;;;;;;5101797;27;20047;-73
2022/01/20 08:29:42;;;;;;;12.82;3.25;;;2.90;99.90;;;;;;5126069;27;20043;-75
2022/01/20 08:32:08;;;;;;;5.50;1.35;;;2.90;99.90;;;;;;5099972;27;20417;-72
2022/01/20 08:34:34;;;;;;;10.48;1.88;;;3.00;99.90;;;;;;5099906;27;20039;-73
2022/01/20 08:37:00;;;;;;;10.30;1.38;;;3.20;99.90;;;;;;5085202;27;20035;-72
2022/01/20 08:42:03;;;;;;;7.57;1.80;;;3.10;99.90;;;;;;5106731;27;20050;-69
2022/01/20 08:44:29;;;;;;;9.73;1.83;;;3.20;99.90;;;;;;5118748;27;20074;-73
2022/01/20 08:46:57;;;;;;;10.20;1.52;;;3.40;99.90;;;;;;5089585;27;20058;-71
2022/01/20 08:49:23;;;;;;;7.13;1.48;;;3.50;99.90;;;;;;5110900;27;20653;-74
2022/01/20 08:51:50;;;;;;;8.55;1.95;;;3.80;99.90;;;;;;5127061;27;20741;-72
2022/01/20 08:54:15;;;;;;;11.50;1.15;;;4.00;99.90;;;;;;5126901;27;20549;-70
2022/01/20 08:56:42;;;;;;;5.75;1.52;;;4.00;99.90;;;;;;5126726;27;20137;-72
2022/01/20 08:59:09;;;;;;;9.18;2.17;;;3.90;99.90;;;;;;5109053;27;20463;-70
2022/01/20 09:01:37;;;;;;;6.40;1.40;;;3.80;99.90;;;;;;5064452;27;20444;-74
2022/01/20 09:04:03;;;;;;;5.82;1.25;;;3.50;99.90;;;;;;5106510;27;20046;-72
2022/01/20 09:06:29;;;;;;;7.68;1.55;;;3.20;99.90;;;;;;5099953;27;20049;-72
2022/01/20 09:08:55;;;;;;;11.10;2.75;;;3.30;99.90;;;;;;5116061;27;20047;-74
2022/01/20 09:11:24;;;;;;;6.43;1.42;;;3.30;99.90;;;;;;5110543;27;20035;-73
2022/01/20 09:16:36;;;;;;;4.57;1.42;;;3.40;99.90;;;;;;5113153;27;20126;-73
2022/01/20 09:19:03;;;;;;;6.78;1.60;;;3.90;99.90;;;;;;5117559;27;20036;-72
2022/01/20 09:21:29;;;;;;;11.77;1.98;;;3.60;99.90;;;;;;5107746;27;20191;-72
2022/01/20 09:23:55;;;;;;;10.25;1.50;;;3.90;99.90;;;;;;5105115;27;20126;-74
2022/01/20 09:26:22;;;;;;;7.72;2.08;;;3.70;99.90;;;;;;5073616;27;20066;-72
2022/01/20 09:28:47;;;;;;;10.13;1.63;;;3.80;99.90;;;;;;5094684;27;20046;-71
2022/01/20 09:31:14;;;;;;;12.52;2.00;;;3.60;99.90;;;;;;5108979;27;20035;-73
2022/01/20 09:33:40;;;;;;;8.65;2.25;;;3.50;99.90;;;;;;5125850;27;20200;-74
2022/01/20 09:36:09;;;;;;;9.77;2.20;;;3.60;99.90;;;;;;5125456;27;20041;-74
2022/01/20 09:38:35;;;;;;;8.75;2.42;;;3.80;99.90;;;;;;5120517;27;20386;-78
2022/01/20 09:41:03;;;;;;;8.63;1.88;;;4.10;99.90;;;;;;5103054;27;20046;-71
2022/01/20 09:43:28;;;;;;;7.38;2.10;;;4.80;99.90;;;;;;5121892;27;20058;-73
2022/01/20 09:45:55;;;;;;;12.43;2.75;;;4.40;99.90;;;;;;5100135;27;20059;-72
2022/01/20 09:48:25;;;;;;;11.23;2.08;;;4.50;99.90;;;;;;5108626;27;20049;-73
2022/01/20 09:50:52;;;;;;;5.93;1.60;;;4.70;99.90;;;;;;5125041;27;20103;-72
2022/01/20 09:53:18;;;;;;;5.88;1.25;;;4.80;99.90;;;;;;5107583;27;20039;-72
2022/01/20 09:55:45;;;;;;;8.40;1.67;;;4.90;99.90;;;;;;5125797;27;20038;-73
2022/01/20 09:58:12;;;;;;;8.55;2.10;;;5.10;99.90;;;;;;5125575;27;20045;-72
2022/01/20 10:00:39;;;;;;;5.00;2.08;;;4.90;99.90;;;;;;5124810;27;20050;-70
2022/01/20 10:03:09;;;;;;;8.32;1.75;;;4.50;99.90;;;;;;5125824;27;20117;-75
2022/01/20 10:05:38;;;;;;;15.80;2.63;;;4.20;99.90;;;;;;5126090;27;20122;-74
2022/01/20 10:08:26;;;;;;;9.60;1.85;;;4.00;99.90;;;;;;5125534;27;20130;-72
2022/01/20 10:11:06;;;;;;;5.88;1.52;;;4.70;99.90;;;;;;5125607;27;20089;-73
2022/01/20 10:13:42;;;;;;;8.98;2.20;;;5.20;99.90;;;;;;5108570;27;20053;-72
2022/01/20 10:16:16;;;;;;;8.65;1.88;;;4.90;99.90;;;;;;5125382;27;20042;-74
2022/01/20 10:18:48;;;;;;;13.95;2.83;;;4.70;99.90;;;;;;5126423;27;20112;-72
2022/01/20 10:21:15;;;;;;;11.32;2.47;;;4.70;99.90;;;;;;5124686;27;20078;-72
2022/01/20 10:23:48;;;;;;;8.02;1.77;;;5.30;99.90;;;;;;5109002;27;20791;-71
2022/01/20 10:26:19;;;;;;;9.45;2.00;;;4.70;99.90;;;;;;5121896;27;20066;-73
2022/01/20 10:29:15;;;;;;;3.58;1.15;;;4.50;99.90;;;;;;5105292;28;20558;-73
2022/01/20 10:31:51;;;;;;;6.10;1.67;;;4.00;99.90;;;;;;5114934;28;20506;-73
2022/01/20 10:34:19;;;;;;;5.65;1.48;;;3.70;99.90;;;;;;5122315;28;20443;-73
2022/01/20 10:36:51;;;;;;;6.38;1.27;;;3.40;99.90;;;;;;5121778;28;20027;-73
2022/01/20 10:39:18;;;;;;;11.60;2.25;;;4.10;99.90;;;;;;5121399;28;20036;-72
2022/01/20 10:41:44;;;;;;;5.78;1.40;;;3.90;99.90;;;;;;5121928;28;20042;-74
2022/01/20 10:44:14;;;;;;;13.93;2.05;;;4.20;99.90;;;;;;5121976;28;20035;-75
2022/01/20 10:46:51;;;;;;;11.55;2.58;;;4.00;99.90;;;;;;5121919;28;20050;-72
2022/01/20 10:49:18;;;;;;;10.35;2.10;;;3.70;99.90;;;;;;5121667;28;20593;-72
2022/01/20 10:51:55;;;;;;;11.95;2.00;;;3.80;99.90;;;;;;5121842;28;20043;-73
2022/01/20 10:54:21;;;;;;;12.48;2.22;;;3.70;99.90;;;;;;5104449;28;20061;-74
2022/01/20 10:56:48;;;;;;;6.97;2.05;;;3.90;99.90;;;;;;5105358;28;20039;-74
2022/01/20 10:59:13;;;;;;;15.77;2.83;;;3.80;99.90;;;;;;5106507;28;20071;-75
2022/01/20 11:01:39;;;;;;;6.78;2.55;;;4.10;99.90;;;;;;5122637;27;20550;-75
2022/01/20 11:04:05;;;;;;;16.73;4.07;;;4.30;99.90;;;;;;5108344;27;20501;-74
2022/01/20 11:06:34;;;;;;;10.32;1.90;;;4.50;99.90;;;;;;5075380;27;20047;-73
2022/01/20 11:09:00;;;;;;;9.43;2.08;;;4.50;99.90;;;;;;5126076;27;20478;-74
2022/01/20 11:11:26;;;;;;;9.15;1.88;;;4.80;99.90;;;;;;5124759;27;20043;-73
2022/01/20 11:13:52;;;;;;;13.55;2.35;;;5.00;99.90;;;;;;5091449;27;20050;-72
2022/01/20 11:16:18;;;;;;;8.40;1.45;;;4.80;99.90;;;;;;5125300;27;20043;-72
2022/01/20 11:18:45;;;;;;;7.07;1.50;;;5.00;99.90;;;;;;5108295;27;20043;-74
2022/01/20 11:21:23;;;;;;;5.65;1.50;;;5.20;99.90;;;;;;5100536;28;20052;-73
2022/01/20 11:23:48;;;;;;;6.60;1.27;;;4.80;99.90;;;;;;5105010;27;20050;-72
2022/01/20 11:26:14;;;;;;;5.90;1.70;;;4.60;99.90;;;;;;5106976;27;20047;-74
2022/01/20 11:28:40;;;;;;;6.50;1.85;;;4.50;99.90;;;;;;5125111;27;20503;-75
2022/01/20 11:31:08;;;;;;;15.13;2.83;;;4.80;99.90;;;;;;5124384;27;20051;-71
2022/01/20 11:33:42;;;;;;;6.95;2.00;;;4.80;99.90;;;;;;5124894;27;20165;-73
2022/01/20 11:36:24;;;;;;;7.28;1.73;;;4.80;99.90;;;;;;5107387;27;20046;-73
2022/01/20 11:38:53;;;;;;;11.15;1.95;;;5.00;99.90;;;;;;5124313;27;20043;-75
2022/01/20 11:41:21;;;;;;;7.65;1.52;;;5.20;99.90;;;;;;5125004;27;20127;-74
2022/01/20 11:43:52;;;;;;;6.18;1.63;;;5.30;99.90;;;;;;5108055;27;20051;-74
2022/01/20 11:46:38;;;;;;;11.75;1.92;;;5.20;99.90;;;;;;5107211;27;20046;-74
2022/01/20 11:49:10;;;;;;;9.65;1.90;;;4.90;99.90;;;;;;5125152;27;20039;-74
2022/01/20 11:51:49;;;;;;;7.57;1.75;;;4.90;99.90;;;;;;5107849;27;20039;-74
2022/01/20 11:54:35;;;;;;;10.13;2.35;;;4.70;99.90;;;;;;5124744;27;20660;-72
2022/01/20 11:57:32;;;;;;;12.38;2.20;;;4.40;99.90;;;;;;5125255;27;20035;-74
2022/01/20 12:00:01;;;;;;;7.68;2.67;;;4.50;99.90;;;;;;5120108;27;20051;-73
2022/01/20 12:02:26;;;;;;;6.25;1.80;;;4.00;99.90;;;;;;5107924;27;20099;-74
2022/01/20 12:04:52;;;;;;;5.45;1.48;;;4.10;99.90;;;;;;5124748;27;20799;-72
2022/01/20 12:07:30;;;;;;;4.60;1.38;;;4.30;99.90;;;;;;5123748;27;20167;-72
2022/01/20 12:10:11;;;;;;;3.45;1.25;;;4.60;99.90;;;;;;5125266;27;20503;-73
2022/01/20 12:12:39;;;;;;;3.90;0.95;;;4.20;99.90;;;;;;5120653;27;20444;-73
2022/01/20 12:15:11;;;;;;;3.95;1.20;;;3.90;99.90;;;;;;5107145;27;20074;-73
2022/01/20 12:17:41;;;;;;;12.40;1.50;;;4.20;99.90;;;;;;5106756;27;20466;-73
2022/01/20 12:20:08;;;;;;;3.58;1.38;;;4.10;99.90;;;;;;5124797;27;20068;-73
2022/01/20 12:22:43;;;;;;;4.65;1.27;;;4.10;99.90;;;;;;5124421;27;20046;-73
2022/01/20 12:25:16;;;;;;;9.68;1.98;;;4.40;99.90;;;;;;5107006;27;20161;-73
2022/01/20 12:27:42;;;;;;;7.70;1.77;;;4.40;99.90;;;;;;5123052;27;20731;-74
2022/01/20 12:30:20;;;;;;;11.15;1.75;;;4.70;99.90;;;;;;5107199;27;20127;-72
2022/01/20 12:33:02;;;;;;;9.50;1.52;;;5.10;99.90;;;;;;5123923;27;20039;-72
2022/01/20 12:35:56;;;;;;;6.75;1.65;;;5.00;99.90;;;;;;5124278;27;20434;-73
2022/01/20 12:38:32;;;;;;;8.70;1.60;;;4.90;99.90;;;;;;5103372;27;20056;-74
2022/01/20 12:41:11;;;;;;;9.80;2.25;;;4.90;99.90;;;;;;5117811;27;20063;-73
2022/01/20 12:43:38;;;;;;;14.23;2.10;;;5.00;99.90;;;;;;5107491;27;20077;-74
2022/01/20 12:46:05;;;;;;;8.43;2.03;;;5.00;99.90;;;;;;5124227;27;20043;-72
2022/01/20 12:48:31;;;;;;;9.75;2.15;;;4.90;99.90;;;;;;5104238;27;20130;-73
2022/01/20 12:51:00;;;;;;;5.53;1.60;;;4.80;99.90;;;;;;5107252;27;20126;-73
2022/01/20 12:53:43;;;;;;;7.10;1.40;;;4.70;99.90;;;;;;5124416;27;20043;-74
2022/01/20 12:56:11;;;;;;;7.80;1.95;;;4.80;99.90;;;;;;5124588;27;20490;-73
2022/01/20 12:59:05;;;;;;;8.23;2.03;;;4.80;99.90;;;;;;5100662;28;20054;-73
2022/01/20 13:01:42;;;;;;;6.53;1.73;;;4.70;99.90;;;;;;5110733;27;20094;-74
2022/01/20 13:04:09;;;;;;;8.00;2.03;;;4.90;99.90;;;;;;5124878;27;20736;-74
2022/01/20 13:06:39;;;;;;;13.13;2.05;;;4.90;99.90;;;;;;5090269;27;20118;-73
2022/01/20 13:09:07;;;;;;;12.00;2.65;;;5.10;99.90;;;;;;5121891;27;20058;-73
2022/01/20 13:11:42;;;;;;;9.75;2.10;;;4.90;99.90;;;;;;5105938;27;20079;-74
2022/01/20 13:14:09;;;;;;;15.97;3.03;;;4.80;99.90;;;;;;5124241;27;20050;-73
2022/01/20 13:16:35;;;;;;;8.38;2.33;;;4.50;99.90;;;;;;5123953;27;20107;-74
2022/01/20 13:19:04;;;;;;;8.15;1.50;;;4.30;99.90;;;;;;5120762;27;20727;-74
2022/01/20 13:21:44;;;;;;;10.52;1.83;;;4.50;99.90;;;;;;5106809;27;20075;-74
2022/01/20 13:24:12;;;;;;;6.38;1.13;;;3.80;99.90;;;;;;5123917;27;20463;-73
2022/01/20 13:26:47;;;;;;;7.85;1.75;;;4.10;99.90;;;;;;5106101;27;20138;-73
2022/01/20 13:29:13;;;;;;;7.75;1.85;;;4.00;99.90;;;;;;5100387;27;20046;-73
2022/01/20 13:31:39;;;;;;;2.05;1.00;;;4.20;99.90;;;;;;5127198;27;20656;-73
2022/01/20 13:34:18;;;;;;;3.60;1.42;;;4.10;99.90;;;;;;5127690;27;20615;-75
2022/01/20 13:36:54;;;;;;;5.30;1.10;;;4.30;99.90;;;;;;5127990;27;20045;-74
2022/01/20 13:39:41;;;;;;;7.78;1.55;;;4.40;99.90;;;;;;5109416;27;20038;-73
2022/01/20 13:42:09;;;;;;;10.13;1.60;;;4.20;99.90;;;;;;5127180;27;20447;-74
2022/01/20 13:47:19;;;;;;;5.88;1.40;;;4.30;99.90;;;;;;5126499;27;20054;-73
2022/01/20 13:49:54;;;;;;;8.55;1.77;;;4.10;99.90;;;;;;5109497;27;20046;-74
2022/01/20 13:52:21;;;;;;;10.93;2.28;;;4.20;99.90;;;;;;5109611;27;20038;-73
2022/01/20 13:54:55;;;;;;;7.60;1.83;;;4.10;99.90;;;;;;5126893;27;20046;-74
2022/01/20 13:57:23;;;;;;;11.15;2.47;;;4.10;99.90;;;;;;5108715;27;20046;-73
2022/01/20 13:59:54;;;;;;;10.52;2.50;;;4.70;99.90;;;;;;5119654;27;20125;-74
2022/01/20 14:02:25;;;;;;;6.32;1.40;;;4.10;99.90;;;;;;5125727;27;20081;-76
2022/01/20 14:04:52;;;;;;;7.35;1.70;;;4.30;99.90;;;;;;5126836;27;20082;-73
2022/01/20 14:07:20;;;;;;;8.00;1.60;;;4.20;99.90;;;;;;5126928;27;20058;-73
2022/01/20 14:09:49;;;;;;;7.70;1.55;;;4.60;99.90;;;;;;5125672;27;20122;-73
2022/01/20 14:12:15;;;;;;;11.93;2.42;;;4.30;99.90;;;;;;5108693;27;20467;-71
2022/01/20 14:14:41;;;;;;;8.25;2.35;;;4.50;99.90;;;;;;5127093;27;20043;-74
2022/01/20 14:17:17;;;;;;;4.32;1.50;;;4.10;99.90;;;;;;5126630;27;20447;-74
2022/01/20 14:19:45;;;;;;;5.45;1.30;;;3.90;99.90;;;;;;5126710;27;20045;-72
2022/01/20 14:22:11;;;;;;;6.90;1.20;;;3.60;99.90;;;;;;5126766;27;20039;-74